Archangel One — 9HPA9 — position and weather

sailwx.info

Track history (hours):
 
Tides and Currents Weather Stations Pressure Air Temp Water Temp Dewpoint Dewpoint Depression Visibility Wind Speed Wind Dir Waves Ship Positions

Archangel One

Last reported at 2017-Sep-21 14:34 UTC. Time now 2017-Sep-21 23:21 UTC.
Position N 42°13' E 040°08'.

Length 109 m; draft 7.5 m.

Type: Ship (hazmat cat B). MMSI: 249301000.

Date/timePositionNaut miles runAvg speedWind from/ knotsBaromVisibWave heightAir tempDewpointWater temp
2017-Sep-21 14:34N 42°13' E 040°08'112.1
2017-Sep-21 14:28N 42°13' E 040°06'7212.3
2017-Sep-21 08:36N 42°14' E 038°29'112.4
2017-Sep-21 08:30N 42°14' E 038°27'612.4
2017-Sep-21 08:00N 42°14' E 038°19'2312.3
2017-Sep-21 06:08N 42°15' E 037°48'112.3
2017-Sep-21 06:01N 42°15' E 037°46'712.0
2017-Sep-21 05:26N 42°15' E 037°36'1611.9
2017-Sep-21 04:06N 42°15' E 037°15'8412.3
2017-Sep-20 21:19N 42°16' E 035°22'412.1
2017-Sep-20 20:57N 42°16' E 035°16'2512.1
2017-Sep-20 18:51N 42°16' E 034°42'512.0
2017-Sep-20 18:27N 42°15' E 034°36'612.1
2017-Sep-20 18:00N 42°15' E 034°28'612.1
2017-Sep-20 17:30N 42°14' E 034°20'612.0
2017-Sep-20 17:01N 42°14' E 034°12'612.1
2017-Sep-20 16:30N 42°14' E 034°04'612.4
2017-Sep-20 16:00N 42°13' E 033°56'612.4
2017-Sep-20 15:30N 42°13' E 033°47'612.4
2017-Sep-20 15:01N 42°12' E 033°39'1212.4
2017-Sep-20 14:01N 42°11' E 033°22'812.2
2017-Sep-20 13:21N 42°09' E 033°12'412.3
2017-Sep-20 13:00N 42°08' E 033°06'612.4
2017-Sep-20 12:31N 42°06' E 032°58'1512.6
2017-Sep-20 11:17N 42°02' E 032°38'412.5
2017-Sep-20 10:59N 42°01' E 032°34'712.5
2017-Sep-20 10:27N 41°59' E 032°25'612.5
2017-Sep-20 09:59N 41°58' E 032°17'1612.6
2017-Sep-20 08:42N 41°53' E 031°57'312.9
2017-Sep-20 08:30N 41°52' E 031°53'712.7
2017-Sep-20 07:58N 41°50' E 031°45'712.6
2017-Sep-20 07:23N 41°48' E 031°35'512.5
2017-Sep-20 07:01N 41°47' E 031°29'10312.3
2017-Sep-19 22:40N 41°18' E 029°18'211.6
2017-Sep-19 22:30N 41°17' E 029°15'611.6
2017-Sep-19 22:01N 41°14' E 029°09'202 8.3
2017-Sep-18 21:40N 39°19' E 025°31'1612.3
2017-Sep-18 20:20N 39°04' E 025°21'512.4
2017-Sep-18 19:56N 39°00' E 025°18'1512.4
2017-Sep-18 18:43N 38°47' E 025°10'3812.3
2017-Sep-18 15:37N 38°13' E 024°46'112.5
2017-Sep-18 15:30N 38°12' E 024°46'1612.5
2017-Sep-18 14:14N 37°58' E 024°36'1912.1
2017-Sep-18 12:38N 37°44' E 024°19'1811.9
2017-Sep-18 11:09N 37°37' E 023°59'212.2
2017-Sep-18 11:00N 37°37' E 023°56'611.9
2017-Sep-18 10:30N 37°38' E 023°49'611.5
2017-Sep-18 10:00N 37°40' E 023°42'612.2
2017-Sep-18 09:30N 37°45' E 023°39'611.8
2017-Sep-18 09:00N 37°51' E 023°36'510.9
2017-Sep-18 08:30N 37°57' E 023°36'4 8.1
2017-Sep-18 08:00N 37°60' E 023°33'3 5.2
2017-Sep-18 07:29N 38°02' E 023°36'0 0.0
2017-Sep-18 06:59N 38°02' E 023°36'0 0.0
2017-Sep-18 06:29N 38°02' E 023°36'0 0.0
2017-Sep-18 05:59N 38°02' E 023°36'0 0.0
2017-Sep-18 05:29N 38°01' E 023°36'0 0.0
2017-Sep-18 04:59N 38°01' E 023°36'0 0.0
2017-Sep-18 04:29N 38°02' E 023°36'0 0.0
2017-Sep-18 03:59N 38°02' E 023°36'0 0.0
2017-Sep-18 03:29N 38°02' E 023°36'0 0.0
2017-Sep-18 02:59N 38°02' E 023°36'0 0.0
2017-Sep-18 02:29N 38°02' E 023°36'0 0.0
2017-Sep-18 01:56N 38°02' E 023°36'0 0.0
2017-Sep-18 01:30N 38°01' E 023°36'0 0.0
2017-Sep-18 00:59N 38°02' E 023°36'0 0.0
2017-Sep-18 00:29N 38°02' E 023°36'0 0.0
2017-Sep-17 23:59N 38°02' E 023°36'0 0.0
2017-Sep-17 23:29N 38°02' E 023°36'0 0.0
2017-Sep-17 22:59N 38°02' E 023°36'0 0.0
2017-Sep-17 22:29N 38°02' E 023°36'0 0.0
2017-Sep-17 21:59N 38°02' E 023°36'0 0.0
2017-Sep-17 21:29N 38°02' E 023°36'0 0.0
2017-Sep-17 20:59N 38°01' E 023°36'0 0.0
2017-Sep-17 20:29N 38°02' E 023°36'0 0.0
2017-Sep-17 19:59N 38°02' E 023°36'0 0.0
2017-Sep-17 19:30N 38°02' E 023°36'0 0.0
2017-Sep-17 18:59N 38°02' E 023°36'0 0.0
2017-Sep-17 18:29N 38°02' E 023°36'0 0.0
2017-Sep-17 17:59N 38°02' E 023°36'0 0.0
2017-Sep-17 17:30N 38°02' E 023°36'0 0.0
2017-Sep-17 16:59N 38°02' E 023°36'0 0.0
2017-Sep-17 16:29N 38°02' E 023°36'0 0.0
2017-Sep-17 15:59N 38°02' E 023°36'0 0.0
2017-Sep-17 15:29N 38°02' E 023°36'0 0.0
2017-Sep-17 14:59N 38°02' E 023°36'0 0.0
2017-Sep-17 14:29N 38°02' E 023°36'0 0.0
2017-Sep-17 13:59N 38°02' E 023°36'0 0.0
2017-Sep-17 13:29N 38°02' E 023°36'0 0.0
2017-Sep-17 12:59N 38°02' E 023°36'0 0.0
2017-Sep-17 12:30N 38°02' E 023°36'0 0.0
2017-Sep-17 11:59N 38°02' E 023°36'0 0.0
2017-Sep-17 11:29N 38°02' E 023°36'0 0.0
2017-Sep-17 10:59N 38°01' E 023°36'0 0.0
2017-Sep-17 10:29N 38°02' E 023°36'0 0.0
2017-Sep-17 09:59N 38°02' E 023°36'0 0.0
2017-Sep-17 09:30N 38°02' E 023°36'0 0.0
2017-Sep-17 08:59N 38°02' E 023°36'0 0.0
2017-Sep-17 08:30N 38°02' E 023°36'2 4.8
2017-Sep-17 08:00N 38°01' E 023°33'0 0.8
2017-Sep-17 07:29N 38°01' E 023°32'0 0.1
2017-Sep-17 06:59N 38°01' E 023°32'0 0.1
2017-Sep-17 06:29N 38°01' E 023°32'0 0.1
2017-Sep-17 05:59N 38°01' E 023°32'0 0.1
2017-Sep-17 05:29N 38°01' E 023°32'0 0.1
2017-Sep-17 04:59N 38°01' E 023°32'0 0.0
2017-Sep-17 04:29N 38°01' E 023°32'0 0.0
2017-Sep-17 03:59N 38°01' E 023°32'0 0.1
2017-Sep-17 03:29N 38°01' E 023°32'0 0.1
2017-Sep-17 02:59N 38°01' E 023°32'0 0.0
2017-Sep-17 02:29N 38°01' E 023°32'0 0.1
2017-Sep-17 01:59N 38°01' E 023°32'0 0.1
2017-Sep-17 01:29N 38°01' E 023°32'0 0.0
2017-Sep-17 00:59N 38°01' E 023°32'0 0.0
2017-Sep-17 00:29N 38°01' E 023°32'0 0.1
2017-Sep-16 23:59N 38°01' E 023°32'0 0.0
2017-Sep-16 23:26N 38°01' E 023°32'0 0.0
2017-Sep-16 22:59N 38°01' E 023°32'0 0.0
2017-Sep-16 22:29N 38°01' E 023°32'0 0.0
2017-Sep-16 21:59N 38°01' E 023°32'0 0.1
2017-Sep-16 21:29N 38°01' E 023°32'0 0.1
2017-Sep-16 20:59N 38°01' E 023°32'0 0.2
2017-Sep-16 20:29N 38°01' E 023°32'0 0.0
2017-Sep-16 19:59N 38°01' E 023°32'0 0.0
2017-Sep-16 19:29N 38°01' E 023°32'0 0.0
2017-Sep-16 18:59N 38°01' E 023°32'0 0.0
2017-Sep-16 18:29N 38°01' E 023°32'0 0.0
2017-Sep-16 17:59N 38°01' E 023°32'0 0.0
2017-Sep-16 17:29N 38°01' E 023°32'0 0.0
2017-Sep-16 16:59N 38°01' E 023°32'0 0.0
2017-Sep-16 16:29N 38°01' E 023°32'0 0.0
2017-Sep-16 15:59N 38°01' E 023°32'0 0.0
2017-Sep-16 15:29N 38°01' E 023°32'0 0.0
2017-Sep-16 14:59N 38°01' E 023°32'0 0.0
2017-Sep-16 14:29N 38°01' E 023°32'0 0.0
2017-Sep-16 13:59N 38°01' E 023°32'0 0.1
2017-Sep-16 13:29N 38°01' E 023°32'0 0.0
2017-Sep-16 12:59N 38°01' E 023°32'0 0.0
2017-Sep-16 12:29N 38°01' E 023°32'0 0.0
2017-Sep-16 11:59N 38°01' E 023°32'0 0.0
2017-Sep-16 11:29N 38°01' E 023°32'0 0.1
2017-Sep-16 10:59N 38°01' E 023°32'0 0.0
2017-Sep-16 10:29N 38°01' E 023°32'0 0.0
2017-Sep-16 09:59N 38°01' E 023°32'0 0.0
2017-Sep-16 09:29N 38°01' E 023°32'0 0.0
2017-Sep-16 08:59N 38°01' E 023°32'0 0.2
2017-Sep-16 08:29N 38°01' E 023°32'0 0.0
2017-Sep-16 07:59N 38°01' E 023°32'0 0.0
2017-Sep-16 07:29N 38°01' E 023°32'0 0.0
2017-Sep-16 07:00N 38°01' E 023°32'1 2.2
2017-Sep-16 06:31N 38°00' E 023°33'5 9.8
2017-Sep-16 06:01N 37°56' E 023°36'1 2.3
2017-Sep-16 05:31N 37°55' E 023°36'1 1.1
2017-Sep-16 05:01N 37°55' E 023°35'2 3.9
2017-Sep-16 04:31N 37°54' E 023°33'0 0.3
2017-Sep-16 03:58N 37°54' E 023°33'0 0.1
2017-Sep-16 03:28N 37°54' E 023°33'0 0.1
2017-Sep-16 02:58N 37°54' E 023°33'0 0.1
2017-Sep-16 02:28N 37°54' E 023°33'0 0.0
2017-Sep-16 01:58N 37°54' E 023°33'0 0.1
2017-Sep-16 01:28N 37°54' E 023°33'0 0.0
2017-Sep-16 00:58N 37°54' E 023°33'0 0.0
2017-Sep-16 00:28N 37°54' E 023°33'0 0.0
2017-Sep-15 23:58N 37°54' E 023°33'0 0.0
2017-Sep-15 23:28N 37°54' E 023°33'0 0.0
2017-Sep-15 22:58N 37°54' E 023°33'0 0.1
2017-Sep-15 22:28N 37°54' E 023°33'0 0.0
2017-Sep-15 21:58N 37°54' E 023°33'0 0.0
2017-Sep-15 21:28N 37°54' E 023°33'0 0.0
2017-Sep-15 20:58N 37°54' E 023°33'0 0.0
2017-Sep-15 20:28N 37°54' E 023°33'0 0.0
2017-Sep-15 19:58N 37°54' E 023°33'0 0.0
2017-Sep-15 19:28N 37°54' E 023°33'0 0.1
2017-Sep-15 18:58N 37°54' E 023°33'2 3.5
2017-Sep-15 18:30N 37°53' E 023°34'611.9
2017-Sep-15 18:00N 37°50' E 023°27'713.7
2017-Sep-15 17:30N 37°51' E 023°19'713.8
2017-Sep-15 17:00N 37°53' E 023°10'713.4
2017-Sep-15 16:29N 37°54' E 023°02'18 7.1
2017-Sep-15 13:57N 38°05' E 022°43'913.1
2017-Sep-15 13:17N 38°09' E 022°33'14412.1
2017-Sep-15 01:23N 39°17' E 019°50'1113.0
2017-Sep-15 00:34N 39°25' E 019°42'512.7
2017-Sep-15 00:08N 39°30' E 019°38'212.9
2017-Sep-15 00:00N 39°31' E 019°37'1113.1
2017-Sep-14 23:09N 39°40' E 019°29'313.0
2017-Sep-14 22:57N 39°42' E 019°26'3413.0
2017-Sep-14 20:20N 40°15' E 019°15'2112.5
2017-Sep-14 18:37N 40°36' E 019°11'  
2017-Sep-11 23:43N 36°51' E 023°23'411.4
2017-Sep-11 23:24N 36°55' E 023°24'511.3
2017-Sep-11 23:00N 36°59' E 023°26'611.3
2017-Sep-11 22:28N 37°05' E 023°30'19 5.7
2017-Sep-11 19:14N 37°22' E 023°37'310.8
2017-Sep-11 19:00N 37°24' E 023°38'511.1
2017-Sep-11 18:30N 37°30' E 023°40'611.3
2017-Sep-11 18:01N 37°35' E 023°41'611.1
2017-Sep-11 17:30N 37°41' E 023°41'611.4
2017-Sep-11 17:01N 37°46' E 023°38'611.5
2017-Sep-11 16:31N 37°52' E 023°36'510.3
2017-Sep-11 16:01N 37°57' E 023°36'4 7.7
2017-Sep-11 15:30N 37°60' E 023°33'3 5.1
2017-Sep-11 14:57N 38°02' E 023°36'  
Track history (hours):
 
Tides and Currents Weather Stations Pressure Air Temp Water Temp Dewpoint Dewpoint Depression Visibility Wind Speed Wind Dir Waves Ship Positions

Archangel One

Last reported at 2017-Sep-21 14:34 UTC. Time now 2017-Sep-21 23:21 UTC.
Position N 42°13' E 040°08'.

Length 109 m; draft 7.5 m.

Type: Ship (hazmat cat B). MMSI: 249301000.

Date/timePositionNaut miles runAvg speedWind from/ knotsBaromVisibWave heightAir tempDewpointWater temp
2017-Sep-21 14:34N 42°13' E 040°08'112.1
2017-Sep-21 14:28N 42°13' E 040°06'7212.3
2017-Sep-21 08:36N 42°14' E 038°29'112.4
2017-Sep-21 08:30N 42°14' E 038°27'612.4
2017-Sep-21 08:00N 42°14' E 038°19'2312.3
2017-Sep-21 06:08N 42°15' E 037°48'112.3
2017-Sep-21 06:01N 42°15' E 037°46'712.0
2017-Sep-21 05:26N 42°15' E 037°36'1611.9
2017-Sep-21 04:06N 42°15' E 037°15'8412.3
2017-Sep-20 21:19N 42°16' E 035°22'412.1
2017-Sep-20 20:57N 42°16' E 035°16'2512.1
2017-Sep-20 18:51N 42°16' E 034°42'512.0
2017-Sep-20 18:27N 42°15' E 034°36'612.1
2017-Sep-20 18:00N 42°15' E 034°28'612.1
2017-Sep-20 17:30N 42°14' E 034°20'612.0
2017-Sep-20 17:01N 42°14' E 034°12'612.1
2017-Sep-20 16:30N 42°14' E 034°04'612.4
2017-Sep-20 16:00N 42°13' E 033°56'612.4
2017-Sep-20 15:30N 42°13' E 033°47'612.4
2017-Sep-20 15:01N 42°12' E 033°39'1212.4
2017-Sep-20 14:01N 42°11' E 033°22'812.2
2017-Sep-20 13:21N 42°09' E 033°12'412.3
2017-Sep-20 13:00N 42°08' E 033°06'612.4
2017-Sep-20 12:31N 42°06' E 032°58'1512.6
2017-Sep-20 11:17N 42°02' E 032°38'412.5
2017-Sep-20 10:59N 42°01' E 032°34'712.5
2017-Sep-20 10:27N 41°59' E 032°25'612.5
2017-Sep-20 09:59N 41°58' E 032°17'1612.6
2017-Sep-20 08:42N 41°53' E 031°57'312.9
2017-Sep-20 08:30N 41°52' E 031°53'712.7
2017-Sep-20 07:58N 41°50' E 031°45'712.6
2017-Sep-20 07:23N 41°48' E 031°35'512.5
2017-Sep-20 07:01N 41°47' E 031°29'10312.3
2017-Sep-19 22:40N 41°18' E 029°18'211.6
2017-Sep-19 22:30N 41°17' E 029°15'611.6
2017-Sep-19 22:01N 41°14' E 029°09'202 8.3
2017-Sep-18 21:40N 39°19' E 025°31'1612.3
2017-Sep-18 20:20N 39°04' E 025°21'512.4
2017-Sep-18 19:56N 39°00' E 025°18'1512.4
2017-Sep-18 18:43N 38°47' E 025°10'3812.3
2017-Sep-18 15:37N 38°13' E 024°46'112.5
2017-Sep-18 15:30N 38°12' E 024°46'1612.5
2017-Sep-18 14:14N 37°58' E 024°36'1912.1
2017-Sep-18 12:38N 37°44' E 024°19'1811.9
2017-Sep-18 11:09N 37°37' E 023°59'212.2
2017-Sep-18 11:00N 37°37' E 023°56'611.9
2017-Sep-18 10:30N 37°38' E 023°49'611.5
2017-Sep-18 10:00N 37°40' E 023°42'612.2
2017-Sep-18 09:30N 37°45' E 023°39'611.8
2017-Sep-18 09:00N 37°51' E 023°36'510.9
2017-Sep-18 08:30N 37°57' E 023°36'4 8.1
2017-Sep-18 08:00N 37°60' E 023°33'3 5.2
2017-Sep-18 07:29N 38°02' E 023°36'0 0.0
2017-Sep-18 06:59N 38°02' E 023°36'0 0.0
2017-Sep-18 06:29N 38°02' E 023°36'0 0.0
2017-Sep-18 05:59N 38°02' E 023°36'0 0.0
2017-Sep-18 05:29N 38°01' E 023°36'0 0.0
2017-Sep-18 04:59N 38°01' E 023°36'0 0.0
2017-Sep-18 04:29N 38°02' E 023°36'0 0.0
2017-Sep-18 03:59N 38°02' E 023°36'0 0.0
2017-Sep-18 03:29N 38°02' E 023°36'0 0.0
2017-Sep-18 02:59N 38°02' E 023°36'0 0.0
2017-Sep-18 02:29N 38°02' E 023°36'0 0.0
2017-Sep-18 01:56N 38°02' E 023°36'0 0.0
2017-Sep-18 01:30N 38°01' E 023°36'0 0.0
2017-Sep-18 00:59N 38°02' E 023°36'0 0.0
2017-Sep-18 00:29N 38°02' E 023°36'0 0.0
2017-Sep-17 23:59N 38°02' E 023°36'0 0.0
2017-Sep-17 23:29N 38°02' E 023°36'0 0.0
2017-Sep-17 22:59N 38°02' E 023°36'0 0.0
2017-Sep-17 22:29N 38°02' E 023°36'0 0.0
2017-Sep-17 21:59N 38°02' E 023°36'0 0.0
2017-Sep-17 21:29N 38°02' E 023°36'0 0.0
2017-Sep-17 20:59N 38°01' E 023°36'0 0.0
2017-Sep-17 20:29N 38°02' E 023°36'0 0.0
2017-Sep-17 19:59N 38°02' E 023°36'0 0.0
2017-Sep-17 19:30N 38°02' E 023°36'0 0.0
2017-Sep-17 18:59N 38°02' E 023°36'0 0.0
2017-Sep-17 18:29N 38°02' E 023°36'0 0.0
2017-Sep-17 17:59N 38°02' E 023°36'0 0.0
2017-Sep-17 17:30N 38°02' E 023°36'0 0.0
2017-Sep-17 16:59N 38°02' E 023°36'0 0.0
2017-Sep-17 16:29N 38°02' E 023°36'0 0.0
2017-Sep-17 15:59N 38°02' E 023°36'0 0.0
2017-Sep-17 15:29N 38°02' E 023°36'0 0.0
2017-Sep-17 14:59N 38°02' E 023°36'0 0.0
2017-Sep-17 14:29N 38°02' E 023°36'0 0.0
2017-Sep-17 13:59N 38°02' E 023°36'0 0.0
2017-Sep-17 13:29N 38°02' E 023°36'0 0.0
2017-Sep-17 12:59N 38°02' E 023°36'0 0.0
2017-Sep-17 12:30N 38°02' E 023°36'0 0.0
2017-Sep-17 11:59N 38°02' E 023°36'0 0.0
2017-Sep-17 11:29N 38°02' E 023°36'0 0.0
2017-Sep-17 10:59N 38°01' E 023°36'0 0.0
2017-Sep-17 10:29N 38°02' E 023°36'0 0.0
2017-Sep-17 09:59N 38°02' E 023°36'0 0.0
2017-Sep-17 09:30N 38°02' E 023°36'0 0.0
2017-Sep-17 08:59N 38°02' E 023°36'0 0.0
2017-Sep-17 08:30N 38°02' E 023°36'2 4.8
2017-Sep-17 08:00N 38°01' E 023°33'0 0.8
2017-Sep-17 07:29N 38°01' E 023°32'0 0.1
2017-Sep-17 06:59N 38°01' E 023°32'0 0.1
2017-Sep-17 06:29N 38°01' E 023°32'0 0.1
2017-Sep-17 05:59N 38°01' E 023°32'0 0.1
2017-Sep-17 05:29N 38°01' E 023°32'0 0.1
2017-Sep-17 04:59N 38°01' E 023°32'0 0.0
2017-Sep-17 04:29N 38°01' E 023°32'0 0.0
2017-Sep-17 03:59N 38°01' E 023°32'0 0.1
2017-Sep-17 03:29N 38°01' E 023°32'0 0.1
2017-Sep-17 02:59N 38°01' E 023°32'0 0.0
2017-Sep-17 02:29N 38°01' E 023°32'0 0.1
2017-Sep-17 01:59N 38°01' E 023°32'0 0.1
2017-Sep-17 01:29N 38°01' E 023°32'0 0.0
2017-Sep-17 00:59N 38°01' E 023°32'0 0.0
2017-Sep-17 00:29N 38°01' E 023°32'0 0.1
2017-Sep-16 23:59N 38°01' E 023°32'0 0.0
2017-Sep-16 23:26N 38°01' E 023°32'0 0.0
2017-Sep-16 22:59N 38°01' E 023°32'0 0.0
2017-Sep-16 22:29N 38°01' E 023°32'0 0.0
2017-Sep-16 21:59N 38°01' E 023°32'0 0.1
2017-Sep-16 21:29N 38°01' E 023°32'0 0.1
2017-Sep-16 20:59N 38°01' E 023°32'0 0.2
2017-Sep-16 20:29N 38°01' E 023°32'0 0.0
2017-Sep-16 19:59N 38°01' E 023°32'0 0.0
2017-Sep-16 19:29N 38°01' E 023°32'0 0.0
2017-Sep-16 18:59N 38°01' E 023°32'0 0.0
2017-Sep-16 18:29N 38°01' E 023°32'0 0.0
2017-Sep-16 17:59N 38°01' E 023°32'0 0.0
2017-Sep-16 17:29N 38°01' E 023°32'0 0.0
2017-Sep-16 16:59N 38°01' E 023°32'0 0.0
2017-Sep-16 16:29N 38°01' E 023°32'0 0.0
2017-Sep-16 15:59N 38°01' E 023°32'0 0.0
2017-Sep-16 15:29N 38°01' E 023°32'0 0.0
2017-Sep-16 14:59N 38°01' E 023°32'0 0.0
2017-Sep-16 14:29N 38°01' E 023°32'0 0.0
2017-Sep-16 13:59N 38°01' E 023°32'0 0.1
2017-Sep-16 13:29N 38°01' E 023°32'0 0.0
2017-Sep-16 12:59N 38°01' E 023°32'0 0.0
2017-Sep-16 12:29N 38°01' E 023°32'0 0.0
2017-Sep-16 11:59N 38°01' E 023°32'0 0.0
2017-Sep-16 11:29N 38°01' E 023°32'0 0.1
2017-Sep-16 10:59N 38°01' E 023°32'0 0.0
2017-Sep-16 10:29N 38°01' E 023°32'0 0.0
2017-Sep-16 09:59N 38°01' E 023°32'0 0.0
2017-Sep-16 09:29N 38°01' E 023°32'0 0.0
2017-Sep-16 08:59N 38°01' E 023°32'0 0.2
2017-Sep-16 08:29N 38°01' E 023°32'0 0.0
2017-Sep-16 07:59N 38°01' E 023°32'0 0.0
2017-Sep-16 07:29N 38°01' E 023°32'0 0.0
2017-Sep-16 07:00N 38°01' E 023°32'1 2.2
2017-Sep-16 06:31N 38°00' E 023°33'5 9.8
2017-Sep-16 06:01N 37°56' E 023°36'1 2.3
2017-Sep-16 05:31N 37°55' E 023°36'1 1.1
2017-Sep-16 05:01N 37°55' E 023°35'2 3.9
2017-Sep-16 04:31N 37°54' E 023°33'0 0.3
2017-Sep-16 03:58N 37°54' E 023°33'0 0.1
2017-Sep-16 03:28N 37°54' E 023°33'0 0.1
2017-Sep-16 02:58N 37°54' E 023°33'0 0.1
2017-Sep-16 02:28N 37°54' E 023°33'0 0.0
2017-Sep-16 01:58N 37°54' E 023°33'0 0.1
2017-Sep-16 01:28N 37°54' E 023°33'0 0.0
2017-Sep-16 00:58N 37°54' E 023°33'0 0.0
2017-Sep-16 00:28N 37°54' E 023°33'0 0.0
2017-Sep-15 23:58N 37°54' E 023°33'0 0.0
2017-Sep-15 23:28N 37°54' E 023°33'0 0.0
2017-Sep-15 22:58N 37°54' E 023°33'0 0.1
2017-Sep-15 22:28N 37°54' E 023°33'0 0.0
2017-Sep-15 21:58N 37°54' E 023°33'0 0.0
2017-Sep-15 21:28N 37°54' E 023°33'0 0.0
2017-Sep-15 20:58N 37°54' E 023°33'0 0.0
2017-Sep-15 20:28N 37°54' E 023°33'0 0.0
2017-Sep-15 19:58N 37°54' E 023°33'0 0.0
2017-Sep-15 19:28N 37°54' E 023°33'0 0.1
2017-Sep-15 18:58N 37°54' E 023°33'2 3.5
2017-Sep-15 18:30N 37°53' E 023°34'611.9
2017-Sep-15 18:00N 37°50' E 023°27'713.7
2017-Sep-15 17:30N 37°51' E 023°19'713.8
2017-Sep-15 17:00N 37°53' E 023°10'713.4
2017-Sep-15 16:29N 37°54' E 023°02'18 7.1
2017-Sep-15 13:57N 38°05' E 022°43'913.1
2017-Sep-15 13:17N 38°09' E 022°33'14412.1
2017-Sep-15 01:23N 39°17' E 019°50'1113.0
2017-Sep-15 00:34N 39°25' E 019°42'512.7
2017-Sep-15 00:08N 39°30' E 019°38'212.9
2017-Sep-15 00:00N 39°31' E 019°37'1113.1
2017-Sep-14 23:09N 39°40' E 019°29'313.0
2017-Sep-14 22:57N 39°42' E 019°26'3413.0
2017-Sep-14 20:20N 40°15' E 019°15'2112.5
2017-Sep-14 18:37N 40°36' E 019°11'  
2017-Sep-11 23:43N 36°51' E 023°23'411.4
2017-Sep-11 23:24N 36°55' E 023°24'511.3
2017-Sep-11 23:00N 36°59' E 023°26'611.3
2017-Sep-11 22:28N 37°05' E 023°30'19 5.7
2017-Sep-11 19:14N 37°22' E 023°37'310.8
2017-Sep-11 19:00N 37°24' E 023°38'511.1
2017-Sep-11 18:30N 37°30' E 023°40'611.3
2017-Sep-11 18:01N 37°35' E 023°41'611.1
2017-Sep-11 17:30N 37°41' E 023°41'611.4
2017-Sep-11 17:01N 37°46' E 023°38'611.5
2017-Sep-11 16:31N 37°52' E 023°36'510.3
2017-Sep-11 16:01N 37°57' E 023°36'4 7.7
2017-Sep-11 15:30N 37°60' E 023°33'3 5.1
2017-Sep-11 14:57N 38°02' E 023°36'  

Dump ship's entire track history